sensor_id;sensor_type;location;lat;lon;timestamp;P1;durP1;ratioP1;P2;durP2;ratioP2
5559;SDS011;2803;47.916;8.074;2023-10-13T00:00:25;7.80;;;3.60;;
5559;SDS011;2803;47.916;8.074;2023-10-13T00:02:56;5.67;;;3.27;;
5559;SDS011;2803;47.916;8.074;2023-10-13T00:05:25;9.40;;;3.20;;
5559;SDS011;2803;47.916;8.074;2023-10-13T00:07:53;7.47;;;3.67;;
5559;SDS011;2803;47.916;8.074;2023-10-13T00:10:20;15.03;;;3.67;;
5559;SDS011;2803;47.916;8.074;2023-10-13T00:12:46;9.97;;;3.90;;
5559;SDS011;2803;47.916;8.074;2023-10-13T00:15:14;6.83;;;3.77;;
5559;SDS011;2803;47.916;8.074;2023-10-13T00:17:42;10.90;;;3.60;;
5559;SDS011;2803;47.916;8.074;2023-10-13T00:20:10;10.13;;;3.33;;
5559;SDS011;2803;47.916;8.074;2023-10-13T00:22:58;10.60;;;4.00;;
5559;SDS011;2803;47.916;8.074;2023-10-13T00:25:27;10.30;;;4.00;;
5559;SDS011;2803;47.916;8.074;2023-10-13T00:27:56;10.77;;;3.67;;
5559;SDS011;2803;47.916;8.074;2023-10-13T00:30:23;14.13;;;3.93;;
5559;SDS011;2803;47.916;8.074;2023-10-13T00:32:58;8.17;;;3.60;;
5559;SDS011;2803;47.916;8.074;2023-10-13T00:35:27;9.93;;;4.50;;
5559;SDS011;2803;47.916;8.074;2023-10-13T00:38:00;8.43;;;4.43;;
5559;SDS011;2803;47.916;8.074;2023-10-13T00:40:32;12.40;;;3.60;;
5559;SDS011;2803;47.916;8.074;2023-10-13T00:43:13;6.63;;;3.83;;
5559;SDS011;2803;47.916;8.074;2023-10-13T00:45:53;7.50;;;3.60;;
5559;SDS011;2803;47.916;8.074;2023-10-13T00:48:23;10.17;;;4.20;;
5559;SDS011;2803;47.916;8.074;2023-10-13T00:50:55;7.67;;;3.87;;
5559;SDS011;2803;47.916;8.074;2023-10-13T00:53:24;5.80;;;3.93;;
5559;SDS011;2803;47.916;8.074;2023-10-13T00:55:51;9.77;;;4.13;;
5559;SDS011;2803;47.916;8.074;2023-10-13T00:58:20;10.40;;;3.70;;
5559;SDS011;2803;47.916;8.074;2023-10-13T01:00:47;12.07;;;4.10;;
5559;SDS011;2803;47.916;8.074;2023-10-13T01:03:21;10.30;;;4.17;;
5559;SDS011;2803;47.916;8.074;2023-10-13T01:05:51;6.23;;;4.10;;
5559;SDS011;2803;47.916;8.074;2023-10-13T01:08:20;14.30;;;4.10;;
5559;SDS011;2803;47.916;8.074;2023-10-13T01:10:59;8.23;;;3.87;;
5559;SDS011;2803;47.916;8.074;2023-10-13T01:13:26;8.80;;;4.47;;
5559;SDS011;2803;47.916;8.074;2023-10-13T01:15:52;20.97;;;4.73;;
5559;SDS011;2803;47.916;8.074;2023-10-13T01:18:18;7.80;;;4.23;;
5559;SDS011;2803;47.916;8.074;2023-10-13T01:20:45;9.43;;;3.43;;
5559;SDS011;2803;47.916;8.074;2023-10-13T01:23:18;7.93;;;4.10;;
5559;SDS011;2803;47.916;8.074;2023-10-13T01:25:44;9.97;;;3.53;;
5559;SDS011;2803;47.916;8.074;2023-10-13T01:28:13;12.50;;;4.50;;
5559;SDS011;2803;47.916;8.074;2023-10-13T01:30:41;9.03;;;4.20;;
5559;SDS011;2803;47.916;8.074;2023-10-13T01:33:08;9.80;;;4.03;;
5559;SDS011;2803;47.916;8.074;2023-10-13T01:35:35;8.73;;;4.10;;
5559;SDS011;2803;47.916;8.074;2023-10-13T01:38:07;8.07;;;3.77;;
5559;SDS011;2803;47.916;8.074;2023-10-13T01:40:34;16.00;;;4.07;;
5559;SDS011;2803;47.916;8.074;2023-10-13T01:43:01;7.37;;;4.10;;
5559;SDS011;2803;47.916;8.074;2023-10-13T01:45:29;10.17;;;4.20;;
5559;SDS011;2803;47.916;8.074;2023-10-13T01:47:56;10.87;;;3.33;;
5559;SDS011;2803;47.916;8.074;2023-10-13T01:50:22;9.87;;;4.17;;
5559;SDS011;2803;47.916;8.074;2023-10-13T01:52:54;9.30;;;4.57;;
5559;SDS011;2803;47.916;8.074;2023-10-13T01:55:31;11.70;;;4.40;;
5559;SDS011;2803;47.916;8.074;2023-10-13T01:58:05;12.83;;;4.47;;
5559;SDS011;2803;47.916;8.074;2023-10-13T02:00:38;8.97;;;4.83;;
5559;SDS011;2803;47.916;8.074;2023-10-13T02:03:07;8.57;;;4.37;;
5559;SDS011;2803;47.916;8.074;2023-10-13T02:05:39;7.50;;;3.90;;
5559;SDS011;2803;47.916;8.074;2023-10-13T02:08:08;11.33;;;4.37;;
5559;SDS011;2803;47.916;8.074;2023-10-13T02:10:42;9.10;;;3.70;;
5559;SDS011;2803;47.916;8.074;2023-10-13T02:13:11;11.90;;;4.33;;
5559;SDS011;2803;47.916;8.074;2023-10-13T02:15:42;11.47;;;4.43;;
5559;SDS011;2803;47.916;8.074;2023-10-13T02:18:09;15.77;;;3.90;;
5559;SDS011;2803;47.916;8.074;2023-10-13T02:20:36;11.30;;;4.67;;
5559;SDS011;2803;47.916;8.074;2023-10-13T02:23:08;10.30;;;3.80;;
5559;SDS011;2803;47.916;8.074;2023-10-13T02:25:36;8.90;;;3.87;;
5559;SDS011;2803;47.916;8.074;2023-10-13T02:28:08;12.00;;;3.90;;
5559;SDS011;2803;47.916;8.074;2023-10-13T02:30:39;11.40;;;3.43;;
5559;SDS011;2803;47.916;8.074;2023-10-13T02:33:10;12.87;;;3.40;;
5559;SDS011;2803;47.916;8.074;2023-10-13T02:35:38;13.13;;;4.20;;
5559;SDS011;2803;47.916;8.074;2023-10-13T02:38:08;8.00;;;5.03;;
5559;SDS011;2803;47.916;8.074;2023-10-13T02:40:37;6.60;;;4.17;;
5559;SDS011;2803;47.916;8.074;2023-10-13T02:43:03;10.37;;;4.73;;
5559;SDS011;2803;47.916;8.074;2023-10-13T02:45:31;7.70;;;3.90;;
5559;SDS011;2803;47.916;8.074;2023-10-13T02:47:58;14.87;;;4.80;;
5559;SDS011;2803;47.916;8.074;2023-10-13T02:50:39;15.13;;;4.50;;
5559;SDS011;2803;47.916;8.074;2023-10-13T02:53:10;7.70;;;4.23;;
5559;SDS011;2803;47.916;8.074;2023-10-13T02:55:39;17.37;;;5.00;;
5559;SDS011;2803;47.916;8.074;2023-10-13T02:58:15;8.07;;;3.80;;
5559;SDS011;2803;47.916;8.074;2023-10-13T03:00:42;17.83;;;4.93;;
5559;SDS011;2803;47.916;8.074;2023-10-13T03:03:10;7.80;;;4.40;;
5559;SDS011;2803;47.916;8.074;2023-10-13T03:05:39;17.77;;;4.63;;
5559;SDS011;2803;47.916;8.074;2023-10-13T03:08:07;10.33;;;4.40;;
5559;SDS011;2803;47.916;8.074;2023-10-13T03:10:36;10.50;;;4.70;;
5559;SDS011;2803;47.916;8.074;2023-10-13T03:13:05;11.80;;;4.30;;
5559;SDS011;2803;47.916;8.074;2023-10-13T03:15:33;10.30;;;4.60;;
5559;SDS011;2803;47.916;8.074;2023-10-13T03:18:00;8.07;;;4.00;;
5559;SDS011;2803;47.916;8.074;2023-10-13T03:20:28;14.00;;;4.70;;
5559;SDS011;2803;47.916;8.074;2023-10-13T03:22:56;8.77;;;3.97;;
5559;SDS011;2803;47.916;8.074;2023-10-13T03:25:23;11.33;;;4.40;;
5559;SDS011;2803;47.916;8.074;2023-10-13T03:27:54;8.27;;;4.30;;
5559;SDS011;2803;47.916;8.074;2023-10-13T03:30:30;11.80;;;4.70;;
5559;SDS011;2803;47.916;8.074;2023-10-13T03:33:01;11.00;;;4.70;;
5559;SDS011;2803;47.916;8.074;2023-10-13T03:35:34;7.77;;;3.80;;
5559;SDS011;2803;47.916;8.074;2023-10-13T03:38:05;13.43;;;4.80;;
5559;SDS011;2803;47.916;8.074;2023-10-13T03:40:39;12.00;;;4.60;;
5559;SDS011;2803;47.916;8.074;2023-10-13T03:43:06;10.37;;;4.90;;
5559;SDS011;2803;47.916;8.074;2023-10-13T03:45:35;15.20;;;5.00;;
5559;SDS011;2803;47.916;8.074;2023-10-13T03:48:05;9.17;;;4.00;;
5559;SDS011;2803;47.916;8.074;2023-10-13T03:50:36;12.83;;;3.83;;
5559;SDS011;2803;47.916;8.074;2023-10-13T03:53:11;16.43;;;4.60;;
5559;SDS011;2803;47.916;8.074;2023-10-13T03:55:38;18.37;;;4.40;;
5559;SDS011;2803;47.916;8.074;2023-10-13T03:58:04;10.37;;;4.70;;
5559;SDS011;2803;47.916;8.074;2023-10-13T04:00:32;9.00;;;4.10;;
5559;SDS011;2803;47.916;8.074;2023-10-13T04:03:01;15.57;;;4.87;;
5559;SDS011;2803;47.916;8.074;2023-10-13T04:05:36;8.90;;;4.50;;
5559;SDS011;2803;47.916;8.074;2023-10-13T04:08:10;8.83;;;4.07;;
5559;SDS011;2803;47.916;8.074;2023-10-13T04:10:51;12.60;;;4.10;;
5559;SDS011;2803;47.916;8.074;2023-10-13T04:13:33;12.13;;;4.20;;
5559;SDS011;2803;47.916;8.074;2023-10-13T04:16:13;14.50;;;4.70;;
5559;SDS011;2803;47.916;8.074;2023-10-13T04:18:59;7.83;;;4.20;;
5559;SDS011;2803;47.916;8.074;2023-10-13T04:21:35;12.53;;;4.43;;
5559;SDS011;2803;47.916;8.074;2023-10-13T04:24:07;9.93;;;4.00;;
5559;SDS011;2803;47.916;8.074;2023-10-13T04:26:34;12.10;;;5.03;;
5559;SDS011;2803;47.916;8.074;2023-10-13T04:29:22;13.50;;;4.53;;
5559;SDS011;2803;47.916;8.074;2023-10-13T04:31:55;10.03;;;3.93;;
5559;SDS011;2803;47.916;8.074;2023-10-13T04:34:25;9.43;;;4.23;;
5559;SDS011;2803;47.916;8.074;2023-10-13T04:36:55;9.30;;;3.77;;
5559;SDS011;2803;47.916;8.074;2023-10-13T04:39:43;15.53;;;4.10;;
5559;SDS011;2803;47.916;8.074;2023-10-13T04:42:08;7.13;;;3.70;;
5559;SDS011;2803;47.916;8.074;2023-10-13T04:44:51;9.10;;;4.50;;
5559;SDS011;2803;47.916;8.074;2023-10-13T04:47:21;8.50;;;3.93;;
5559;SDS011;2803;47.916;8.074;2023-10-13T04:49:48;10.27;;;4.70;;
5559;SDS011;2803;47.916;8.074;2023-10-13T04:52:16;10.53;;;3.70;;
5559;SDS011;2803;47.916;8.074;2023-10-13T04:55:04;13.73;;;3.80;;
5559;SDS011;2803;47.916;8.074;2023-10-13T04:57:45;10.50;;;4.30;;
5559;SDS011;2803;47.916;8.074;2023-10-13T05:00:18;9.57;;;4.67;;
5559;SDS011;2803;47.916;8.074;2023-10-13T05:02:58;10.53;;;3.90;;
5559;SDS011;2803;47.916;8.074;2023-10-13T05:05:42;13.17;;;4.20;;
5559;SDS011;2803;47.916;8.074;2023-10-13T05:08:32;10.93;;;4.03;;
5559;SDS011;2803;47.916;8.074;2023-10-13T05:11:13;12.07;;;3.80;;
5559;SDS011;2803;47.916;8.074;2023-10-13T05:13:53;7.53;;;3.50;;
5559;SDS011;2803;47.916;8.074;2023-10-13T05:16:34;12.40;;;4.90;;
5559;SDS011;2803;47.916;8.074;2023-10-13T05:19:14;13.73;;;4.43;;
5559;SDS011;2803;47.916;8.074;2023-10-13T05:21:55;15.43;;;4.23;;
5559;SDS011;2803;47.916;8.074;2023-10-13T05:24:37;11.20;;;4.80;;
5559;SDS011;2803;47.916;8.074;2023-10-13T05:27:17;10.57;;;4.93;;
5559;SDS011;2803;47.916;8.074;2023-10-13T05:29:58;9.90;;;3.30;;
5559;SDS011;2803;47.916;8.074;2023-10-13T05:32:39;8.13;;;3.90;;
5559;SDS011;2803;47.916;8.074;2023-10-13T05:35:20;5.33;;;3.30;;
5559;SDS011;2803;47.916;8.074;2023-10-13T05:38:01;9.70;;;4.23;;
5559;SDS011;2803;47.916;8.074;2023-10-13T05:40:52;7.53;;;3.80;;
5559;SDS011;2803;47.916;8.074;2023-10-13T05:43:32;17.93;;;4.27;;
5559;SDS011;2803;47.916;8.074;2023-10-13T05:46:13;7.57;;;3.47;;
5559;SDS011;2803;47.916;8.074;2023-10-13T05:48:54;8.60;;;3.90;;
5559;SDS011;2803;47.916;8.074;2023-10-13T05:51:49;8.37;;;4.23;;
5559;SDS011;2803;47.916;8.074;2023-10-13T05:54:31;9.60;;;4.57;;
5559;SDS011;2803;47.916;8.074;2023-10-13T05:57:12;16.37;;;3.97;;
5559;SDS011;2803;47.916;8.074;2023-10-13T05:59:53;13.80;;;4.27;;
5559;SDS011;2803;47.916;8.074;2023-10-13T06:02:33;7.93;;;3.97;;
5559;SDS011;2803;47.916;8.074;2023-10-13T06:05:14;8.30;;;3.60;;
5559;SDS011;2803;47.916;8.074;2023-10-13T06:07:56;7.30;;;3.43;;
5559;SDS011;2803;47.916;8.074;2023-10-13T06:10:38;7.37;;;3.80;;
5559;SDS011;2803;47.916;8.074;2023-10-13T06:13:19;10.63;;;3.63;;
5559;SDS011;2803;47.916;8.074;2023-10-13T06:16:00;11.83;;;3.27;;
5559;SDS011;2803;47.916;8.074;2023-10-13T06:18:44;20.40;;;3.80;;
5559;SDS011;2803;47.916;8.074;2023-10-13T06:21:25;12.77;;;4.00;;
5559;SDS011;2803;47.916;8.074;2023-10-13T06:24:07;9.83;;;4.33;;
5559;SDS011;2803;47.916;8.074;2023-10-13T06:26:48;9.60;;;3.93;;
5559;SDS011;2803;47.916;8.074;2023-10-13T06:29:28;10.53;;;4.13;;
5559;SDS011;2803;47.916;8.074;2023-10-13T06:31:55;12.83;;;3.77;;
5559;SDS011;2803;47.916;8.074;2023-10-13T06:34:23;11.77;;;4.03;;
5559;SDS011;2803;47.916;8.074;2023-10-13T06:37:03;12.33;;;4.10;;
5559;SDS011;2803;47.916;8.074;2023-10-13T06:39:48;15.13;;;4.50;;
5559;SDS011;2803;47.916;8.074;2023-10-13T06:42:16;8.00;;;3.30;;
5559;SDS011;2803;47.916;8.074;2023-10-13T06:44:44;11.67;;;3.73;;
5559;SDS011;2803;47.916;8.074;2023-10-13T06:47:11;10.63;;;3.87;;
5559;SDS011;2803;47.916;8.074;2023-10-13T06:49:38;8.20;;;3.40;;
5559;SDS011;2803;47.916;8.074;2023-10-13T06:52:08;10.93;;;4.10;;
5559;SDS011;2803;47.916;8.074;2023-10-13T06:54:35;9.53;;;4.40;;
5559;SDS011;2803;47.916;8.074;2023-10-13T06:57:05;14.03;;;5.10;;
5559;SDS011;2803;47.916;8.074;2023-10-13T06:59:39;9.83;;;3.60;;
5559;SDS011;2803;47.916;8.074;2023-10-13T07:02:06;7.43;;;3.80;;
5559;SDS011;2803;47.916;8.074;2023-10-13T07:04:34;17.37;;;4.77;;
5559;SDS011;2803;47.916;8.074;2023-10-13T07:07:04;10.10;;;4.00;;
5559;SDS011;2803;47.916;8.074;2023-10-13T07:09:35;10.10;;;3.70;;
5559;SDS011;2803;47.916;8.074;2023-10-13T07:12:15;12.90;;;4.20;;
5559;SDS011;2803;47.916;8.074;2023-10-13T07:14:45;12.30;;;4.00;;
5559;SDS011;2803;47.916;8.074;2023-10-13T07:17:17;9.17;;;3.50;;
5559;SDS011;2803;47.916;8.074;2023-10-13T07:19:48;15.60;;;4.50;;
5559;SDS011;2803;47.916;8.074;2023-10-13T07:22:19;14.40;;;3.90;;
5559;SDS011;2803;47.916;8.074;2023-10-13T07:24:47;6.40;;;3.20;;
5559;SDS011;2803;47.916;8.074;2023-10-13T07:27:16;8.53;;;3.30;;
5559;SDS011;2803;47.916;8.074;2023-10-13T07:29:48;11.00;;;3.10;;
5559;SDS011;2803;47.916;8.074;2023-10-13T07:32:20;11.63;;;3.53;;
5559;SDS011;2803;47.916;8.074;2023-10-13T07:34:51;7.80;;;3.00;;
5559;SDS011;2803;47.916;8.074;2023-10-13T07:37:20;9.63;;;3.60;;
5559;SDS011;2803;47.916;8.074;2023-10-13T07:39:50;7.23;;;2.70;;
5559;SDS011;2803;47.916;8.074;2023-10-13T07:42:18;10.37;;;3.80;;
5559;SDS011;2803;47.916;8.074;2023-10-13T07:44:46;6.50;;;3.40;;
5559;SDS011;2803;47.916;8.074;2023-10-13T07:47:13;11.70;;;3.87;;
5559;SDS011;2803;47.916;8.074;2023-10-13T07:49:42;13.13;;;3.20;;
5559;SDS011;2803;47.916;8.074;2023-10-13T07:52:11;10.67;;;4.00;;
5559;SDS011;2803;47.916;8.074;2023-10-13T07:54:49;9.63;;;4.17;;
5559;SDS011;2803;47.916;8.074;2023-10-13T07:57:25;8.10;;;3.00;;
5559;SDS011;2803;47.916;8.074;2023-10-13T07:59:54;9.73;;;3.33;;
5559;SDS011;2803;47.916;8.074;2023-10-13T08:02:35;14.83;;;3.23;;
5559;SDS011;2803;47.916;8.074;2023-10-13T08:05:16;7.70;;;3.20;;
5559;SDS011;2803;47.916;8.074;2023-10-13T08:07:50;10.40;;;3.30;;
5559;SDS011;2803;47.916;8.074;2023-10-13T08:10:18;13.73;;;3.03;;
5559;SDS011;2803;47.916;8.074;2023-10-13T08:12:51;13.90;;;2.90;;
5559;SDS011;2803;47.916;8.074;2023-10-13T08:15:19;10.10;;;2.87;;
5559;SDS011;2803;47.916;8.074;2023-10-13T08:17:56;7.00;;;2.90;;
5559;SDS011;2803;47.916;8.074;2023-10-13T08:20:28;11.37;;;4.13;;
5559;SDS011;2803;47.916;8.074;2023-10-13T08:22:56;6.17;;;2.97;;
5559;SDS011;2803;47.916;8.074;2023-10-13T08:25:38;7.13;;;3.00;;
5559;SDS011;2803;47.916;8.074;2023-10-13T08:28:20;7.63;;;2.37;;
5559;SDS011;2803;47.916;8.074;2023-10-13T08:31:02;9.30;;;3.40;;
5559;SDS011;2803;47.916;8.074;2023-10-13T08:33:39;11.77;;;3.13;;
5559;SDS011;2803;47.916;8.074;2023-10-13T08:36:11;8.57;;;3.17;;
5559;SDS011;2803;47.916;8.074;2023-10-13T08:38:53;7.40;;;2.90;;
5559;SDS011;2803;47.916;8.074;2023-10-13T08:41:21;10.93;;;3.33;;
5559;SDS011;2803;47.916;8.074;2023-10-13T08:43:58;11.43;;;2.73;;
5559;SDS011;2803;47.916;8.074;2023-10-13T08:46:30;12.67;;;2.80;;
5559;SDS011;2803;47.916;8.074;2023-10-13T08:49:16;8.33;;;3.00;;
5559;SDS011;2803;47.916;8.074;2023-10-13T08:51:48;8.37;;;3.27;;
5559;SDS011;2803;47.916;8.074;2023-10-13T08:54:30;11.53;;;3.30;;
5559;SDS011;2803;47.916;8.074;2023-10-13T08:56:59;13.40;;;3.60;;
5559;SDS011;2803;47.916;8.074;2023-10-13T08:59:46;13.77;;;3.30;;
5559;SDS011;2803;47.916;8.074;2023-10-13T09:02:19;13.70;;;3.10;;
5559;SDS011;2803;47.916;8.074;2023-10-13T09:05:07;8.37;;;2.80;;
5559;SDS011;2803;47.916;8.074;2023-10-13T09:07:54;14.20;;;3.33;;
5559;SDS011;2803;47.916;8.074;2023-10-13T09:10:33;11.57;;;2.70;;
5559;SDS011;2803;47.916;8.074;2023-10-13T09:12:59;5.13;;;2.43;;
5559;SDS011;2803;47.916;8.074;2023-10-13T09:15:30;4.87;;;2.37;;
5559;SDS011;2803;47.916;8.074;2023-10-13T09:18:11;17.30;;;3.03;;
5559;SDS011;2803;47.916;8.074;2023-10-13T09:21:03;8.00;;;3.00;;
5559;SDS011;2803;47.916;8.074;2023-10-13T09:23:51;10.27;;;3.80;;
5559;SDS011;2803;47.916;8.074;2023-10-13T09:26:35;4.43;;;2.30;;
5559;SDS011;2803;47.916;8.074;2023-10-13T09:29:03;7.70;;;2.40;;
5559;SDS011;2803;47.916;8.074;2023-10-13T09:31:44;6.40;;;2.70;;
5559;SDS011;2803;47.916;8.074;2023-10-13T09:34:19;9.00;;;3.20;;
5559;SDS011;2803;47.916;8.074;2023-10-13T09:36:47;12.23;;;2.97;;
5559;SDS011;2803;47.916;8.074;2023-10-13T09:39:20;7.47;;;3.40;;
5559;SDS011;2803;47.916;8.074;2023-10-13T09:41:59;6.77;;;2.60;;
5559;SDS011;2803;47.916;8.074;2023-10-13T09:44:26;7.17;;;3.03;;
5559;SDS011;2803;47.916;8.074;2023-10-13T09:46:57;11.10;;;3.30;;
5559;SDS011;2803;47.916;8.074;2023-10-13T09:49:32;9.47;;;3.00;;
5559;SDS011;2803;47.916;8.074;2023-10-13T09:52:13;6.33;;;3.00;;
5559;SDS011;2803;47.916;8.074;2023-10-13T09:54:47;5.33;;;2.77;;
5559;SDS011;2803;47.916;8.074;2023-10-13T09:57:25;10.30;;;3.30;;
5559;SDS011;2803;47.916;8.074;2023-10-13T10:00:00;9.53;;;3.17;;
5559;SDS011;2803;47.916;8.074;2023-10-13T10:02:41;7.30;;;2.90;;
5559;SDS011;2803;47.916;8.074;2023-10-13T10:05:09;9.43;;;2.53;;
5559;SDS011;2803;47.916;8.074;2023-10-13T10:07:53;6.63;;;2.70;;
5559;SDS011;2803;47.916;8.074;2023-10-13T10:10:21;7.00;;;3.23;;
5559;SDS011;2803;47.916;8.074;2023-10-13T10:12:48;17.83;;;3.30;;
5559;SDS011;2803;47.916;8.074;2023-10-13T10:15:22;12.53;;;3.20;;
5559;SDS011;2803;47.916;8.074;2023-10-13T10:17:57;9.30;;;2.73;;
5559;SDS011;2803;47.916;8.074;2023-10-13T10:20:27;7.90;;;3.40;;
5559;SDS011;2803;47.916;8.074;2023-10-13T10:23:05;9.40;;;3.43;;
5559;SDS011;2803;47.916;8.074;2023-10-13T10:25:35;13.97;;;3.33;;
5559;SDS011;2803;47.916;8.074;2023-10-13T10:28:03;6.00;;;3.13;;
5559;SDS011;2803;47.916;8.074;2023-10-13T10:30:32;7.65;;;3.70;;
5559;SDS011;2803;47.916;8.074;2023-10-13T10:33:05;9.17;;;2.77;;
5559;SDS011;2803;47.916;8.074;2023-10-13T10:35:37;9.23;;;3.20;;
5559;SDS011;2803;47.916;8.074;2023-10-13T10:38:07;15.13;;;3.08;;
5559;SDS011;2803;47.916;8.074;2023-10-13T10:40:48;5.88;;;3.08;;
5559;SDS011;2803;47.916;8.074;2023-10-13T10:43:22;10.75;;;3.13;;
5559;SDS011;2803;47.916;8.074;2023-10-13T10:45:51;8.18;;;2.90;;
5559;SDS011;2803;47.916;8.074;2023-10-13T10:48:25;9.98;;;2.72;;
5559;SDS011;2803;47.916;8.074;2023-10-13T10:51:00;8.68;;;2.88;;
5559;SDS011;2803;47.916;8.074;2023-10-13T10:53:33;9.25;;;3.35;;
5559;SDS011;2803;47.916;8.074;2023-10-13T10:56:09;14.05;;;3.10;;
5559;SDS011;2803;47.916;8.074;2023-10-13T10:58:45;7.57;;;2.95;;
5559;SDS011;2803;47.916;8.074;2023-10-13T11:01:12;8.50;;;3.55;;
5559;SDS011;2803;47.916;8.074;2023-10-13T11:03:53;12.13;;;3.50;;
5559;SDS011;2803;47.916;8.074;2023-10-13T11:06:32;12.63;;;3.70;;
5559;SDS011;2803;47.916;8.074;2023-10-13T11:09:03;9.18;;;3.65;;
5559;SDS011;2803;47.916;8.074;2023-10-13T11:11:33;6.13;;;2.78;;
5559;SDS011;2803;47.916;8.074;2023-10-13T11:14:00;5.65;;;2.72;;
5559;SDS011;2803;47.916;8.074;2023-10-13T11:16:45;7.07;;;2.92;;
5559;SDS011;2803;47.916;8.074;2023-10-13T11:19:17;8.40;;;2.95;;
5559;SDS011;2803;47.916;8.074;2023-10-13T11:21:50;14.95;;;2.88;;
5559;SDS011;2803;47.916;8.074;2023-10-13T11:24:18;7.57;;;2.78;;
5559;SDS011;2803;47.916;8.074;2023-10-13T11:26:46;13.70;;;3.67;;
5559;SDS011;2803;47.916;8.074;2023-10-13T11:29:15;7.00;;;3.10;;
5559;SDS011;2803;47.916;8.074;2023-10-13T11:31:44;6.05;;;3.28;;
5559;SDS011;2803;47.916;8.074;2023-10-13T11:34:11;6.93;;;3.38;;
5559;SDS011;2803;47.916;8.074;2023-10-13T11:36:43;9.48;;;3.20;;
5559;SDS011;2803;47.916;8.074;2023-10-13T11:39:09;7.95;;;2.88;;
5559;SDS011;2803;47.916;8.074;2023-10-13T11:41:42;9.90;;;2.78;;
5559;SDS011;2803;47.916;8.074;2023-10-13T11:44:15;7.68;;;2.92;;
5559;SDS011;2803;47.916;8.074;2023-10-13T11:46:56;4.38;;;2.33;;
5559;SDS011;2803;47.916;8.074;2023-10-13T11:49:32;6.50;;;3.07;;
5559;SDS011;2803;47.916;8.074;2023-10-13T11:52:03;6.43;;;2.60;;
5559;SDS011;2803;47.916;8.074;2023-10-13T11:54:44;12.20;;;2.80;;
5559;SDS011;2803;47.916;8.074;2023-10-13T11:57:12;11.73;;;3.27;;
5559;SDS011;2803;47.916;8.074;2023-10-13T11:59:41;11.13;;;3.47;;
5559;SDS011;2803;47.916;8.074;2023-10-13T12:02:18;9.43;;;2.57;;
5559;SDS011;2803;47.916;8.074;2023-10-13T12:04:59;20.93;;;3.30;;
5559;SDS011;2803;47.916;8.074;2023-10-13T12:07:37;8.20;;;2.93;;
5559;SDS011;2803;47.916;8.074;2023-10-13T12:10:13;10.30;;;3.77;;
5559;SDS011;2803;47.916;8.074;2023-10-13T12:12:45;8.03;;;3.47;;
5559;SDS011;2803;47.916;8.074;2023-10-13T12:15:18;5.87;;;2.73;;
5559;SDS011;2803;47.916;8.074;2023-10-13T12:17:55;8.40;;;2.93;;
5559;SDS011;2803;47.916;8.074;2023-10-13T12:20:23;8.47;;;2.70;;
5559;SDS011;2803;47.916;8.074;2023-10-13T12:22:59;8.77;;;2.90;;
5559;SDS011;2803;47.916;8.074;2023-10-13T12:25:35;13.73;;;3.20;;
5559;SDS011;2803;47.916;8.074;2023-10-13T12:28:19;10.07;;;2.83;;
5559;SDS011;2803;47.916;8.074;2023-10-13T12:30:48;14.23;;;3.23;;
5559;SDS011;2803;47.916;8.074;2023-10-13T12:33:18;11.93;;;3.30;;
5559;SDS011;2803;47.916;8.074;2023-10-13T12:35:55;8.87;;;3.00;;
5559;SDS011;2803;47.916;8.074;2023-10-13T12:38:35;11.50;;;3.83;;
5559;SDS011;2803;47.916;8.074;2023-10-13T12:41:37;13.37;;;2.90;;
5559;SDS011;2803;47.916;8.074;2023-10-13T12:44:18;8.23;;;2.70;;
5559;SDS011;2803;47.916;8.074;2023-10-13T12:46:58;8.10;;;3.43;;
5559;SDS011;2803;47.916;8.074;2023-10-13T12:49:39;15.40;;;3.47;;
5559;SDS011;2803;47.916;8.074;2023-10-13T12:52:17;9.47;;;3.13;;
5559;SDS011;2803;47.916;8.074;2023-10-13T12:54:46;14.67;;;3.00;;
5559;SDS011;2803;47.916;8.074;2023-10-13T12:57:24;11.33;;;3.40;;
5559;SDS011;2803;47.916;8.074;2023-10-13T12:59:51;9.70;;;3.03;;
5559;SDS011;2803;47.916;8.074;2023-10-13T13:02:19;10.37;;;2.83;;
5559;SDS011;2803;47.916;8.074;2023-10-13T13:04:45;10.93;;;2.97;;
5559;SDS011;2803;47.916;8.074;2023-10-13T13:07:16;7.63;;;3.03;;
5559;SDS011;2803;47.916;8.074;2023-10-13T13:09:43;7.93;;;3.10;;
5559;SDS011;2803;47.916;8.074;2023-10-13T13:12:11;12.37;;;3.13;;
5559;SDS011;2803;47.916;8.074;2023-10-13T13:14:39;13.10;;;3.70;;
5559;SDS011;2803;47.916;8.074;2023-10-13T13:17:10;8.40;;;2.77;;
5559;SDS011;2803;47.916;8.074;2023-10-13T13:19:37;10.33;;;3.47;;
5559;SDS011;2803;47.916;8.074;2023-10-13T13:22:05;10.70;;;3.97;;
5559;SDS011;2803;47.916;8.074;2023-10-13T13:24:36;6.53;;;3.33;;
5559;SDS011;2803;47.916;8.074;2023-10-13T13:27:08;11.57;;;3.17;;
5559;SDS011;2803;47.916;8.074;2023-10-13T13:29:40;14.43;;;3.70;;
5559;SDS011;2803;47.916;8.074;2023-10-13T13:32:06;6.70;;;2.60;;
5559;SDS011;2803;47.916;8.074;2023-10-13T13:34:42;9.03;;;3.40;;
5559;SDS011;2803;47.916;8.074;2023-10-13T13:37:09;7.83;;;3.00;;
5559;SDS011;2803;47.916;8.074;2023-10-13T13:39:37;9.83;;;3.30;;
5559;SDS011;2803;47.916;8.074;2023-10-13T13:42:08;20.30;;;3.40;;
5559;SDS011;2803;47.916;8.074;2023-10-13T13:44:35;7.80;;;3.20;;
5559;SDS011;2803;47.916;8.074;2023-10-13T13:47:04;10.00;;;3.10;;
5559;SDS011;2803;47.916;8.074;2023-10-13T13:49:36;7.90;;;3.00;;
5559;SDS011;2803;47.916;8.074;2023-10-13T13:52:05;7.23;;;3.20;;
5559;SDS011;2803;47.916;8.074;2023-10-13T13:54:32;7.90;;;3.37;;
5559;SDS011;2803;47.916;8.074;2023-10-13T13:56:59;14.40;;;3.10;;
5559;SDS011;2803;47.916;8.074;2023-10-13T13:59:26;6.60;;;3.77;;
5559;SDS011;2803;47.916;8.074;2023-10-13T14:01:58;9.50;;;3.60;;
5559;SDS011;2803;47.916;8.074;2023-10-13T14:04:32;9.47;;;2.90;;
5559;SDS011;2803;47.916;8.074;2023-10-13T14:06:59;10.90;;;3.57;;
5559;SDS011;2803;47.916;8.074;2023-10-13T14:09:31;7.73;;;3.00;;
5559;SDS011;2803;47.916;8.074;2023-10-13T14:12:01;13.70;;;3.60;;
5559;SDS011;2803;47.916;8.074;2023-10-13T14:14:41;15.00;;;3.20;;
5559;SDS011;2803;47.916;8.074;2023-10-13T14:17:14;13.53;;;3.03;;
5559;SDS011;2803;47.916;8.074;2023-10-13T14:19:42;15.40;;;3.77;;
5559;SDS011;2803;47.916;8.074;2023-10-13T14:22:10;12.73;;;3.27;;
5559;SDS011;2803;47.916;8.074;2023-10-13T14:24:38;9.50;;;3.30;;
5559;SDS011;2803;47.916;8.074;2023-10-13T14:27:12;6.97;;;3.17;;
5559;SDS011;2803;47.916;8.074;2023-10-13T14:29:42;16.83;;;3.50;;
5559;SDS011;2803;47.916;8.074;2023-10-13T14:32:10;15.90;;;3.90;;
5559;SDS011;2803;47.916;8.074;2023-10-13T14:34:39;16.23;;;3.20;;
5559;SDS011;2803;47.916;8.074;2023-10-13T14:37:07;14.73;;;3.03;;
5559;SDS011;2803;47.916;8.074;2023-10-13T14:39:37;12.43;;;3.20;;
5559;SDS011;2803;47.916;8.074;2023-10-13T14:42:04;9.43;;;3.00;;
5559;SDS011;2803;47.916;8.074;2023-10-13T14:44:32;10.80;;;3.40;;
5559;SDS011;2803;47.916;8.074;2023-10-13T14:46:59;8.60;;;3.87;;
5559;SDS011;2803;47.916;8.074;2023-10-13T14:49:26;8.83;;;3.20;;
5559;SDS011;2803;47.916;8.074;2023-10-13T14:51:53;11.90;;;3.17;;
5559;SDS011;2803;47.916;8.074;2023-10-13T14:54:22;14.80;;;4.63;;
5559;SDS011;2803;47.916;8.074;2023-10-13T14:56:58;9.17;;;4.13;;
5559;SDS011;2803;47.916;8.074;2023-10-13T14:59:26;6.27;;;3.53;;
5559;SDS011;2803;47.916;8.074;2023-10-13T15:01:58;10.57;;;4.50;;
5559;SDS011;2803;47.916;8.074;2023-10-13T15:04:27;14.60;;;4.10;;
5559;SDS011;2803;47.916;8.074;2023-10-13T15:06:58;11.10;;;3.10;;
5559;SDS011;2803;47.916;8.074;2023-10-13T15:09:28;12.60;;;3.93;;
5559;SDS011;2803;47.916;8.074;2023-10-13T15:11:54;10.83;;;3.50;;
5559;SDS011;2803;47.916;8.074;2023-10-13T15:14:21;12.33;;;4.40;;
5559;SDS011;2803;47.916;8.074;2023-10-13T15:16:48;9.10;;;4.50;;
5559;SDS011;2803;47.916;8.074;2023-10-13T15:19:17;10.73;;;3.23;;
5559;SDS011;2803;47.916;8.074;2023-10-13T15:21:44;8.27;;;3.63;;
5559;SDS011;2803;47.916;8.074;2023-10-13T15:24:14;8.50;;;3.23;;
5559;SDS011;2803;47.916;8.074;2023-10-13T15:26:43;10.17;;;3.50;;
5559;SDS011;2803;47.916;8.074;2023-10-13T15:29:13;15.27;;;4.17;;
5559;SDS011;2803;47.916;8.074;2023-10-13T15:31:41;13.43;;;3.43;;
5559;SDS011;2803;47.916;8.074;2023-10-13T15:34:19;10.40;;;3.43;;
5559;SDS011;2803;47.916;8.074;2023-10-13T15:36:48;12.73;;;3.93;;
5559;SDS011;2803;47.916;8.074;2023-10-13T15:39:17;13.83;;;3.83;;
5559;SDS011;2803;47.916;8.074;2023-10-13T15:41:50;5.57;;;2.90;;